sensor_id;sensor_type;location;lat;lon;timestamp;P1;durP1;ratioP1;P2;durP2;ratioP2
13847;SDS011;6994;49.752;6.094;2024-02-15T00:01:54;4.30;;;1.70;;
13847;SDS011;6994;49.752;6.094;2024-02-15T00:04:21;5.32;;;1.85;;
13847;SDS011;6994;49.752;6.094;2024-02-15T00:06:49;3.22;;;1.42;;
13847;SDS011;6994;49.752;6.094;2024-02-15T00:09:17;4.55;;;1.62;;
13847;SDS011;6994;49.752;6.094;2024-02-15T00:11:44;3.08;;;1.60;;
13847;SDS011;6994;49.752;6.094;2024-02-15T00:14:11;6.35;;;1.90;;
13847;SDS011;6994;49.752;6.094;2024-02-15T00:16:38;3.45;;;1.55;;
13847;SDS011;6994;49.752;6.094;2024-02-15T00:19:06;3.65;;;2.05;;
13847;SDS011;6994;49.752;6.094;2024-02-15T00:21:33;5.70;;;1.98;;
13847;SDS011;6994;49.752;6.094;2024-02-15T00:24:00;3.80;;;1.90;;
13847;SDS011;6994;49.752;6.094;2024-02-15T00:26:27;4.90;;;2.17;;
13847;SDS011;6994;49.752;6.094;2024-02-15T00:28:54;7.82;;;1.90;;
13847;SDS011;6994;49.752;6.094;2024-02-15T00:31:22;6.87;;;1.70;;
13847;SDS011;6994;49.752;6.094;2024-02-15T00:33:49;5.43;;;1.62;;
13847;SDS011;6994;49.752;6.094;2024-02-15T00:36:16;3.75;;;2.12;;
13847;SDS011;6994;49.752;6.094;2024-02-15T00:38:44;6.00;;;2.25;;
13847;SDS011;6994;49.752;6.094;2024-02-15T00:41:11;9.27;;;3.25;;
13847;SDS011;6994;49.752;6.094;2024-02-15T00:43:38;7.20;;;1.70;;
13847;SDS011;6994;49.752;6.094;2024-02-15T00:46:06;6.07;;;2.60;;
13847;SDS011;6994;49.752;6.094;2024-02-15T00:48:34;3.05;;;1.80;;
13847;SDS011;6994;49.752;6.094;2024-02-15T00:51:01;6.55;;;1.80;;
13847;SDS011;6994;49.752;6.094;2024-02-15T00:53:28;7.32;;;2.15;;
13847;SDS011;6994;49.752;6.094;2024-02-15T00:55:55;4.37;;;1.87;;
13847;SDS011;6994;49.752;6.094;2024-02-15T00:58:22;2.33;;;1.87;;
13847;SDS011;6994;49.752;6.094;2024-02-15T01:00:50;7.75;;;1.50;;
13847;SDS011;6994;49.752;6.094;2024-02-15T01:03:17;4.95;;;2.20;;
13847;SDS011;6994;49.752;6.094;2024-02-15T01:05:44;4.00;;;1.42;;
13847;SDS011;6994;49.752;6.094;2024-02-15T01:08:11;6.90;;;1.50;;
13847;SDS011;6994;49.752;6.094;2024-02-15T01:10:39;9.23;;;1.60;;
13847;SDS011;6994;49.752;6.094;2024-02-15T01:13:06;6.45;;;1.83;;
13847;SDS011;6994;49.752;6.094;2024-02-15T01:15:34;5.25;;;1.65;;
13847;SDS011;6994;49.752;6.094;2024-02-15T01:18:02;3.83;;;1.50;;
13847;SDS011;6994;49.752;6.094;2024-02-15T01:20:30;3.62;;;1.55;;
13847;SDS011;6994;49.752;6.094;2024-02-15T01:22:57;3.95;;;1.70;;
13847;SDS011;6994;49.752;6.094;2024-02-15T01:25:24;7.18;;;2.00;;
13847;SDS011;6994;49.752;6.094;2024-02-15T01:27:51;6.93;;;2.12;;
13847;SDS011;6994;49.752;6.094;2024-02-15T01:30:18;12.18;;;2.00;;
13847;SDS011;6994;49.752;6.094;2024-02-15T01:32:46;4.80;;;1.50;;
13847;SDS011;6994;49.752;6.094;2024-02-15T01:35:13;5.65;;;1.62;;
13847;SDS011;6994;49.752;6.094;2024-02-15T01:37:40;6.50;;;1.90;;
13847;SDS011;6994;49.752;6.094;2024-02-15T01:40:07;8.85;;;1.80;;
13847;SDS011;6994;49.752;6.094;2024-02-15T01:42:35;8.00;;;2.40;;
13847;SDS011;6994;49.752;6.094;2024-02-15T01:45:02;3.17;;;1.48;;
13847;SDS011;6994;49.752;6.094;2024-02-15T01:47:29;8.60;;;2.55;;
13847;SDS011;6994;49.752;6.094;2024-02-15T01:49:56;10.13;;;2.17;;
13847;SDS011;6994;49.752;6.094;2024-02-15T01:52:23;5.93;;;3.35;;
13847;SDS011;6994;49.752;6.094;2024-02-15T01:54:51;7.65;;;1.90;;
13847;SDS011;6994;49.752;6.094;2024-02-15T01:57:18;5.97;;;2.00;;
13847;SDS011;6994;49.752;6.094;2024-02-15T01:59:45;2.90;;;1.75;;
13847;SDS011;6994;49.752;6.094;2024-02-15T02:02:12;7.60;;;2.40;;
13847;SDS011;6994;49.752;6.094;2024-02-15T02:04:39;6.30;;;2.33;;
13847;SDS011;6994;49.752;6.094;2024-02-15T02:07:07;6.15;;;2.67;;
13847;SDS011;6994;49.752;6.094;2024-02-15T02:09:34;9.65;;;2.60;;
13847;SDS011;6994;49.752;6.094;2024-02-15T02:12:01;5.75;;;2.17;;
13847;SDS011;6994;49.752;6.094;2024-02-15T02:14:28;10.40;;;3.60;;
13847;SDS011;6994;49.752;6.094;2024-02-15T02:16:56;6.75;;;2.80;;
13847;SDS011;6994;49.752;6.094;2024-02-15T02:19:23;8.20;;;2.67;;
13847;SDS011;6994;49.752;6.094;2024-02-15T02:21:51;6.62;;;2.70;;
13847;SDS011;6994;49.752;6.094;2024-02-15T02:24:20;4.28;;;2.90;;
13847;SDS011;6994;49.752;6.094;2024-02-15T02:26:48;8.70;;;3.10;;
13847;SDS011;6994;49.752;6.094;2024-02-15T02:29:15;10.13;;;3.40;;
13847;SDS011;6994;49.752;6.094;2024-02-15T02:31:42;6.12;;;2.75;;
13847;SDS011;6994;49.752;6.094;2024-02-15T02:34:09;7.78;;;2.40;;
13847;SDS011;6994;49.752;6.094;2024-02-15T02:36:36;8.18;;;2.47;;
13847;SDS011;6994;49.752;6.094;2024-02-15T02:39:04;6.12;;;2.45;;
13847;SDS011;6994;49.752;6.094;2024-02-15T02:41:31;2.92;;;2.15;;
13847;SDS011;6994;49.752;6.094;2024-02-15T02:43:58;3.92;;;2.20;;
13847;SDS011;6994;49.752;6.094;2024-02-15T02:46:25;4.47;;;2.17;;
13847;SDS011;6994;49.752;6.094;2024-02-15T02:48:52;6.85;;;2.53;;
13847;SDS011;6994;49.752;6.094;2024-02-15T02:51:20;4.28;;;2.20;;
13847;SDS011;6994;49.752;6.094;2024-02-15T02:53:48;6.03;;;2.22;;
13847;SDS011;6994;49.752;6.094;2024-02-15T02:56:16;6.53;;;2.40;;
13847;SDS011;6994;49.752;6.094;2024-02-15T02:58:44;5.82;;;1.87;;
13847;SDS011;6994;49.752;6.094;2024-02-15T03:01:11;5.03;;;2.35;;
13847;SDS011;6994;49.752;6.094;2024-02-15T03:03:38;6.50;;;2.60;;
13847;SDS011;6994;49.752;6.094;2024-02-15T03:06:05;5.85;;;2.37;;
13847;SDS011;6994;49.752;6.094;2024-02-15T03:08:32;7.00;;;3.20;;
13847;SDS011;6994;49.752;6.094;2024-02-15T03:11:00;7.12;;;2.75;;
13847;SDS011;6994;49.752;6.094;2024-02-15T03:13:27;10.30;;;2.45;;
13847;SDS011;6994;49.752;6.094;2024-02-15T03:15:54;5.32;;;2.62;;
13847;SDS011;6994;49.752;6.094;2024-02-15T03:18:21;3.67;;;2.28;;
13847;SDS011;6994;49.752;6.094;2024-02-15T03:20:49;4.78;;;2.40;;
13847;SDS011;6994;49.752;6.094;2024-02-15T03:23:16;6.03;;;2.62;;
13847;SDS011;6994;49.752;6.094;2024-02-15T03:25:44;6.53;;;2.67;;
13847;SDS011;6994;49.752;6.094;2024-02-15T03:28:12;7.95;;;3.08;;
13847;SDS011;6994;49.752;6.094;2024-02-15T03:30:39;4.97;;;2.90;;
13847;SDS011;6994;49.752;6.094;2024-02-15T03:33:07;7.18;;;2.08;;
13847;SDS011;6994;49.752;6.094;2024-02-15T03:35:34;2.67;;;1.73;;
13847;SDS011;6994;49.752;6.094;2024-02-15T03:38:01;5.18;;;2.58;;
13847;SDS011;6994;49.752;6.094;2024-02-15T03:40:28;5.78;;;2.47;;
13847;SDS011;6994;49.752;6.094;2024-02-15T03:42:56;5.72;;;2.10;;
13847;SDS011;6994;49.752;6.094;2024-02-15T03:45:23;8.13;;;2.47;;
13847;SDS011;6994;49.752;6.094;2024-02-15T03:47:53;5.43;;;2.40;;
13847;SDS011;6994;49.752;6.094;2024-02-15T03:50:20;7.05;;;2.67;;
13847;SDS011;6994;49.752;6.094;2024-02-15T03:52:47;3.78;;;2.50;;
13847;SDS011;6994;49.752;6.094;2024-02-15T03:55:15;7.82;;;2.50;;
13847;SDS011;6994;49.752;6.094;2024-02-15T03:57:43;7.25;;;2.10;;
13847;SDS011;6994;49.752;6.094;2024-02-15T04:00:10;9.88;;;2.70;;
13847;SDS011;6994;49.752;6.094;2024-02-15T04:02:37;8.35;;;3.08;;
13847;SDS011;6994;49.752;6.094;2024-02-15T04:05:05;8.77;;;2.50;;
13847;SDS011;6994;49.752;6.094;2024-02-15T04:07:32;7.30;;;2.62;;
13847;SDS011;6994;49.752;6.094;2024-02-15T04:10:00;7.25;;;2.53;;
13847;SDS011;6994;49.752;6.094;2024-02-15T04:12:28;6.80;;;2.70;;
13847;SDS011;6994;49.752;6.094;2024-02-15T04:14:56;6.55;;;2.60;;
13847;SDS011;6994;49.752;6.094;2024-02-15T04:17:24;7.15;;;2.65;;
13847;SDS011;6994;49.752;6.094;2024-02-15T04:19:51;8.27;;;2.90;;
13847;SDS011;6994;49.752;6.094;2024-02-15T04:22:19;9.68;;;3.22;;
13847;SDS011;6994;49.752;6.094;2024-02-15T04:24:47;5.30;;;2.30;;
13847;SDS011;6994;49.752;6.094;2024-02-15T04:27:14;8.27;;;2.05;;
13847;SDS011;6994;49.752;6.094;2024-02-15T04:29:41;8.77;;;3.17;;
13847;SDS011;6994;49.752;6.094;2024-02-15T04:32:09;5.75;;;2.65;;
13847;SDS011;6994;49.752;6.094;2024-02-15T04:34:39;9.27;;;2.75;;
13847;SDS011;6994;49.752;6.094;2024-02-15T04:37:06;8.68;;;2.78;;
13847;SDS011;6994;49.752;6.094;2024-02-15T04:39:34;7.03;;;2.00;;
13847;SDS011;6994;49.752;6.094;2024-02-15T04:42:03;5.00;;;2.50;;
13847;SDS011;6994;49.752;6.094;2024-02-15T04:44:33;6.45;;;2.30;;
13847;SDS011;6994;49.752;6.094;2024-02-15T04:47:01;5.50;;;2.45;;
13847;SDS011;6994;49.752;6.094;2024-02-15T04:49:28;3.37;;;1.92;;
13847;SDS011;6994;49.752;6.094;2024-02-15T04:51:55;6.37;;;2.00;;
13847;SDS011;6994;49.752;6.094;2024-02-15T04:54:23;9.55;;;1.98;;
13847;SDS011;6994;49.752;6.094;2024-02-15T04:56:50;5.62;;;2.05;;
13847;SDS011;6994;49.752;6.094;2024-02-15T04:59:17;7.35;;;2.22;;
13847;SDS011;6994;49.752;6.094;2024-02-15T05:01:45;6.32;;;2.50;;
13847;SDS011;6994;49.752;6.094;2024-02-15T05:04:13;7.97;;;3.10;;
13847;SDS011;6994;49.752;6.094;2024-02-15T05:06:41;11.05;;;3.58;;
13847;SDS011;6994;49.752;6.094;2024-02-15T05:09:08;3.62;;;2.03;;
13847;SDS011;6994;49.752;6.094;2024-02-15T05:11:39;5.47;;;1.92;;
13847;SDS011;6994;49.752;6.094;2024-02-15T05:14:09;7.93;;;2.87;;
13847;SDS011;6994;49.752;6.094;2024-02-15T05:16:36;5.22;;;2.00;;
13847;SDS011;6994;49.752;6.094;2024-02-15T05:19:06;7.18;;;2.37;;
13847;SDS011;6994;49.752;6.094;2024-02-15T05:21:34;6.97;;;1.77;;
13847;SDS011;6994;49.752;6.094;2024-02-15T05:24:01;3.20;;;2.40;;
13847;SDS011;6994;49.752;6.094;2024-02-15T05:26:28;5.80;;;1.98;;
13847;SDS011;6994;49.752;6.094;2024-02-15T05:28:56;6.62;;;2.62;;
13847;SDS011;6994;49.752;6.094;2024-02-15T05:31:24;8.60;;;2.17;;
13847;SDS011;6994;49.752;6.094;2024-02-15T05:33:52;5.25;;;2.17;;
13847;SDS011;6994;49.752;6.094;2024-02-15T05:36:20;6.50;;;2.42;;
13847;SDS011;6994;49.752;6.094;2024-02-15T05:38:49;8.63;;;1.80;;
13847;SDS011;6994;49.752;6.094;2024-02-15T05:41:16;7.03;;;2.10;;
13847;SDS011;6994;49.752;6.094;2024-02-15T05:43:43;3.35;;;1.90;;
13847;SDS011;6994;49.752;6.094;2024-02-15T05:46:10;7.80;;;2.20;;
13847;SDS011;6994;49.752;6.094;2024-02-15T05:48:38;7.55;;;2.28;;
13847;SDS011;6994;49.752;6.094;2024-02-15T05:51:05;6.37;;;2.30;;
13847;SDS011;6994;49.752;6.094;2024-02-15T05:53:32;7.78;;;3.20;;
13847;SDS011;6994;49.752;6.094;2024-02-15T05:56:05;5.15;;;2.58;;
13847;SDS011;6994;49.752;6.094;2024-02-15T05:58:33;4.85;;;2.62;;
13847;SDS011;6994;49.752;6.094;2024-02-15T06:01:00;5.35;;;3.25;;
13847;SDS011;6994;49.752;6.094;2024-02-15T06:03:29;7.37;;;2.60;;
13847;SDS011;6994;49.752;6.094;2024-02-15T06:05:56;7.72;;;2.85;;
13847;SDS011;6994;49.752;6.094;2024-02-15T06:08:27;6.05;;;3.03;;
13847;SDS011;6994;49.752;6.094;2024-02-15T06:10:57;6.97;;;2.90;;
13847;SDS011;6994;49.752;6.094;2024-02-15T06:13:25;8.25;;;3.00;;
13847;SDS011;6994;49.752;6.094;2024-02-15T06:15:51;8.40;;;2.55;;
13847;SDS011;6994;49.752;6.094;2024-02-15T06:18:21;13.25;;;2.97;;
13847;SDS011;6994;49.752;6.094;2024-02-15T06:20:48;6.95;;;2.37;;
13847;SDS011;6994;49.752;6.094;2024-02-15T06:23:18;4.37;;;2.60;;
13847;SDS011;6994;49.752;6.094;2024-02-15T06:25:50;5.15;;;2.45;;
13847;SDS011;6994;49.752;6.094;2024-02-15T06:28:15;5.45;;;2.47;;
13847;SDS011;6994;49.752;6.094;2024-02-15T06:31:01;4.97;;;2.78;;
13847;SDS011;6994;49.752;6.094;2024-02-15T06:33:46;8.13;;;3.10;;
13847;SDS011;6994;49.752;6.094;2024-02-15T06:36:33;5.45;;;2.80;;
13847;SDS011;6994;49.752;6.094;2024-02-15T06:39:19;4.20;;;2.35;;
13847;SDS011;6994;49.752;6.094;2024-02-15T06:42:04;6.07;;;2.60;;
13847;SDS011;6994;49.752;6.094;2024-02-15T06:44:31;6.15;;;2.42;;
13847;SDS011;6994;49.752;6.094;2024-02-15T06:46:58;5.12;;;2.50;;
13847;SDS011;6994;49.752;6.094;2024-02-15T06:49:25;10.65;;;2.62;;
13847;SDS011;6994;49.752;6.094;2024-02-15T06:51:53;5.03;;;2.80;;
13847;SDS011;6994;49.752;6.094;2024-02-15T06:54:20;9.82;;;3.83;;
13847;SDS011;6994;49.752;6.094;2024-02-15T06:56:47;10.75;;;2.80;;
13847;SDS011;6994;49.752;6.094;2024-02-15T06:59:14;12.07;;;3.58;;
13847;SDS011;6994;49.752;6.094;2024-02-15T07:01:41;7.15;;;4.30;;
13847;SDS011;6994;49.752;6.094;2024-02-15T07:04:09;12.60;;;4.28;;
13847;SDS011;6994;49.752;6.094;2024-02-15T07:06:39;7.85;;;2.92;;
13847;SDS011;6994;49.752;6.094;2024-02-15T07:09:06;9.82;;;3.08;;
13847;SDS011;6994;49.752;6.094;2024-02-15T07:11:33;6.60;;;3.12;;
13847;SDS011;6994;49.752;6.094;2024-02-15T07:14:03;7.80;;;2.97;;
13847;SDS011;6994;49.752;6.094;2024-02-15T07:16:30;3.87;;;2.92;;
13847;SDS011;6994;49.752;6.094;2024-02-15T07:18:58;8.30;;;2.75;;
13847;SDS011;6994;49.752;6.094;2024-02-15T07:21:25;6.75;;;2.85;;
13847;SDS011;6994;49.752;6.094;2024-02-15T07:23:56;6.40;;;2.97;;
13847;SDS011;6994;49.752;6.094;2024-02-15T07:26:20;6.18;;;3.50;;
13847;SDS011;6994;49.752;6.094;2024-02-15T07:28:47;4.82;;;3.35;;
13847;SDS011;6994;49.752;6.094;2024-02-15T07:31:14;7.22;;;2.85;;
13847;SDS011;6994;49.752;6.094;2024-02-15T07:33:41;9.00;;;3.10;;
13847;SDS011;6994;49.752;6.094;2024-02-15T07:36:08;5.65;;;3.10;;
13847;SDS011;6994;49.752;6.094;2024-02-15T07:38:36;3.87;;;3.10;;
13847;SDS011;6994;49.752;6.094;2024-02-15T07:41:03;10.43;;;3.47;;
13847;SDS011;6994;49.752;6.094;2024-02-15T07:43:31;5.45;;;3.37;;
13847;SDS011;6994;49.752;6.094;2024-02-15T07:45:58;7.90;;;3.25;;
13847;SDS011;6994;49.752;6.094;2024-02-15T07:48:25;6.72;;;3.28;;
13847;SDS011;6994;49.752;6.094;2024-02-15T07:50:52;10.82;;;4.30;;
13847;SDS011;6994;49.752;6.094;2024-02-15T07:53:19;7.62;;;3.17;;
13847;SDS011;6994;49.752;6.094;2024-02-15T07:55:47;6.68;;;3.20;;
13847;SDS011;6994;49.752;6.094;2024-02-15T07:58:14;9.60;;;3.75;;
13847;SDS011;6994;49.752;6.094;2024-02-15T08:00:41;6.43;;;2.85;;
13847;SDS011;6994;49.752;6.094;2024-02-15T08:03:08;8.80;;;2.70;;
13847;SDS011;6994;49.752;6.094;2024-02-15T08:05:35;9.13;;;3.30;;
13847;SDS011;6994;49.752;6.094;2024-02-15T08:08:03;5.32;;;3.05;;
13847;SDS011;6994;49.752;6.094;2024-02-15T08:10:31;7.80;;;3.20;;
13847;SDS011;6994;49.752;6.094;2024-02-15T08:12:58;3.08;;;2.72;;
13847;SDS011;6994;49.752;6.094;2024-02-15T08:15:25;5.95;;;3.87;;
13847;SDS011;6994;49.752;6.094;2024-02-15T08:17:52;8.43;;;3.70;;
13847;SDS011;6994;49.752;6.094;2024-02-15T08:20:19;7.60;;;3.90;;
13847;SDS011;6994;49.752;6.094;2024-02-15T08:22:47;6.37;;;3.58;;
13847;SDS011;6994;49.752;6.094;2024-02-15T08:25:15;6.82;;;3.03;;
13847;SDS011;6994;49.752;6.094;2024-02-15T08:27:43;4.78;;;2.97;;
13847;SDS011;6994;49.752;6.094;2024-02-15T08:30:11;7.20;;;2.75;;
13847;SDS011;6994;49.752;6.094;2024-02-15T08:32:38;7.85;;;2.95;;
13847;SDS011;6994;49.752;6.094;2024-02-15T08:35:06;5.18;;;2.45;;
13847;SDS011;6994;49.752;6.094;2024-02-15T08:37:32;3.87;;;2.05;;
13847;SDS011;6994;49.752;6.094;2024-02-15T08:40:00;4.35;;;2.37;;
13847;SDS011;6994;49.752;6.094;2024-02-15T08:42:27;7.12;;;2.55;;
13847;SDS011;6994;49.752;6.094;2024-02-15T08:44:54;5.18;;;2.20;;
13847;SDS011;6994;49.752;6.094;2024-02-15T08:47:21;2.87;;;2.17;;
13847;SDS011;6994;49.752;6.094;2024-02-15T08:49:48;5.25;;;2.10;;
13847;SDS011;6994;49.752;6.094;2024-02-15T08:52:16;5.07;;;2.70;;
13847;SDS011;6994;49.752;6.094;2024-02-15T08:54:43;9.50;;;2.33;;
13847;SDS011;6994;49.752;6.094;2024-02-15T08:57:10;7.82;;;2.10;;
13847;SDS011;6994;49.752;6.094;2024-02-15T08:59:38;5.85;;;2.12;;
13847;SDS011;6994;49.752;6.094;2024-02-15T09:02:04;4.68;;;2.05;;
13847;SDS011;6994;49.752;6.094;2024-02-15T09:04:32;5.05;;;2.03;;
13847;SDS011;6994;49.752;6.094;2024-02-15T09:06:59;5.85;;;2.10;;
13847;SDS011;6994;49.752;6.094;2024-02-15T09:09:27;3.78;;;1.62;;
13847;SDS011;6994;49.752;6.094;2024-02-15T09:11:54;4.93;;;1.60;;
13847;SDS011;6994;49.752;6.094;2024-02-15T09:14:21;4.53;;;2.22;;
13847;SDS011;6994;49.752;6.094;2024-02-15T09:16:48;3.72;;;2.17;;
13847;SDS011;6994;49.752;6.094;2024-02-15T09:19:16;4.07;;;1.70;;
13847;SDS011;6994;49.752;6.094;2024-02-15T09:21:43;3.50;;;1.50;;
13847;SDS011;6994;49.752;6.094;2024-02-15T09:24:10;2.92;;;1.52;;
13847;SDS011;6994;49.752;6.094;2024-02-15T09:26:37;3.42;;;1.58;;
13847;SDS011;6994;49.752;6.094;2024-02-15T09:29:05;7.07;;;1.70;;
13847;SDS011;6994;49.752;6.094;2024-02-15T09:31:33;5.32;;;1.70;;
13847;SDS011;6994;49.752;6.094;2024-02-15T09:34:00;3.28;;;1.58;;
13847;SDS011;6994;49.752;6.094;2024-02-15T09:36:28;3.08;;;1.27;;
13847;SDS011;6994;49.752;6.094;2024-02-15T09:38:55;1.80;;;1.30;;
13847;SDS011;6994;49.752;6.094;2024-02-15T09:41:22;5.78;;;1.67;;
13847;SDS011;6994;49.752;6.094;2024-02-15T09:43:49;2.33;;;1.42;;
13847;SDS011;6994;49.752;6.094;2024-02-15T09:46:16;3.35;;;1.62;;
13847;SDS011;6994;49.752;6.094;2024-02-15T09:48:45;5.47;;;1.75;;
13847;SDS011;6994;49.752;6.094;2024-02-15T09:51:11;5.00;;;1.70;;
13847;SDS011;6994;49.752;6.094;2024-02-15T09:53:38;4.75;;;1.65;;
13847;SDS011;6994;49.752;6.094;2024-02-15T09:56:05;3.20;;;1.77;;
13847;SDS011;6994;49.752;6.094;2024-02-15T09:58:33;1.60;;;1.25;;
13847;SDS011;6994;49.752;6.094;2024-02-15T10:01:01;3.95;;;1.40;;
13847;SDS011;6994;49.752;6.094;2024-02-15T10:03:30;3.67;;;1.42;;
13847;SDS011;6994;49.752;6.094;2024-02-15T10:05:57;1.80;;;1.50;;
13847;SDS011;6994;49.752;6.094;2024-02-15T10:08:25;3.78;;;1.37;;
13847;SDS011;6994;49.752;6.094;2024-02-15T10:11:07;4.07;;;2.00;;
13847;SDS011;6994;49.752;6.094;2024-02-15T10:13:35;2.58;;;1.35;;
13847;SDS011;6994;49.752;6.094;2024-02-15T10:16:15;7.55;;;2.70;;
13847;SDS011;6994;49.752;6.094;2024-02-15T10:18:41;3.03;;;1.90;;
13847;SDS011;6994;49.752;6.094;2024-02-15T10:21:08;3.53;;;1.80;;
13847;SDS011;6994;49.752;6.094;2024-02-15T10:23:36;4.40;;;1.90;;
13847;SDS011;6994;49.752;6.094;2024-02-15T10:26:18;5.37;;;1.60;;
13847;SDS011;6994;49.752;6.094;2024-02-15T10:28:30;6.50;;;2.45;;
13847;SDS011;6994;49.752;6.094;2024-02-15T10:30:57;3.97;;;1.42;;
13847;SDS011;6994;49.752;6.094;2024-02-15T10:33:28;5.00;;;2.30;;
13847;SDS011;6994;49.752;6.094;2024-02-15T10:36:06;4.25;;;1.58;;
13847;SDS011;6994;49.752;6.094;2024-02-15T10:38:33;4.12;;;2.00;;
13847;SDS011;6994;49.752;6.094;2024-02-15T10:41:05;2.00;;;1.58;;
13847;SDS011;6994;49.752;6.094;2024-02-15T10:43:32;1.95;;;1.48;;
13847;SDS011;6994;49.752;6.094;2024-02-15T10:46:01;3.70;;;1.90;;
13847;SDS011;6994;49.752;6.094;2024-02-15T10:48:28;3.90;;;2.00;;
13847;SDS011;6994;49.752;6.094;2024-02-15T10:50:59;3.37;;;1.70;;
13847;SDS011;6994;49.752;6.094;2024-02-15T10:53:30;5.90;;;1.42;;
13847;SDS011;6994;49.752;6.094;2024-02-15T10:58:26;4.60;;;2.10;;
13847;SDS011;6994;49.752;6.094;2024-02-15T11:00:53;6.25;;;2.53;;
13847;SDS011;6994;49.752;6.094;2024-02-15T11:03:25;5.07;;;1.85;;
13847;SDS011;6994;49.752;6.094;2024-02-15T11:05:50;6.30;;;2.70;;
13847;SDS011;6994;49.752;6.094;2024-02-15T11:08:17;2.53;;;1.58;;
13847;SDS011;6994;49.752;6.094;2024-02-15T11:10:44;5.05;;;1.92;;
13847;SDS011;6994;49.752;6.094;2024-02-15T11:13:11;4.12;;;1.50;;
13847;SDS011;6994;49.752;6.094;2024-02-15T11:15:42;3.22;;;1.62;;
13847;SDS011;6994;49.752;6.094;2024-02-15T11:18:09;6.53;;;1.70;;
13847;SDS011;6994;49.752;6.094;2024-02-15T11:23:05;2.78;;;1.92;;
13847;SDS011;6994;49.752;6.094;2024-02-15T11:25:34;2.58;;;1.62;;
13847;SDS011;6994;49.752;6.094;2024-02-15T11:30:47;2.45;;;1.77;;
13847;SDS011;6994;49.752;6.094;2024-02-15T11:33:30;3.33;;;1.95;;
13847;SDS011;6994;49.752;6.094;2024-02-15T11:36:19;3.37;;;1.98;;
13847;SDS011;6994;49.752;6.094;2024-02-15T11:38:36;3.70;;;2.20;;
13847;SDS011;6994;49.752;6.094;2024-02-15T11:41:04;4.87;;;2.33;;
13847;SDS011;6994;49.752;6.094;2024-02-15T11:46:13;3.40;;;2.25;;
13847;SDS011;6994;49.752;6.094;2024-02-15T11:48:40;5.90;;;2.25;;
13847;SDS011;6994;49.752;6.094;2024-02-15T11:51:07;2.12;;;1.40;;
13847;SDS011;6994;49.752;6.094;2024-02-15T11:53:34;3.22;;;1.52;;
13847;SDS011;6994;49.752;6.094;2024-02-15T11:56:01;3.62;;;1.58;;
13847;SDS011;6994;49.752;6.094;2024-02-15T11:58:29;3.70;;;1.87;;
13847;SDS011;6994;49.752;6.094;2024-02-15T12:01:00;3.47;;;1.50;;
13847;SDS011;6994;49.752;6.094;2024-02-15T12:03:45;3.55;;;1.65;;
13847;SDS011;6994;49.752;6.094;2024-02-15T12:06:31;4.37;;;2.00;;
13847;SDS011;6994;49.752;6.094;2024-02-15T12:09:19;1.40;;;1.20;;
13847;SDS011;6994;49.752;6.094;2024-02-15T12:12:05;5.60;;;1.77;;
13847;SDS011;6994;49.752;6.094;2024-02-15T12:15:00;1.55;;;1.40;;
13847;SDS011;6994;49.752;6.094;2024-02-15T12:17:45;4.05;;;1.50;;
13847;SDS011;6994;49.752;6.094;2024-02-15T12:20:31;1.30;;;1.20;;
13847;SDS011;6994;49.752;6.094;2024-02-15T12:22:58;1.73;;;1.12;;
13847;SDS011;6994;49.752;6.094;2024-02-15T12:25:25;3.65;;;2.15;;
13847;SDS011;6994;49.752;6.094;2024-02-15T12:27:54;4.32;;;1.40;;
13847;SDS011;6994;49.752;6.094;2024-02-15T12:30:20;1.62;;;1.10;;
13847;SDS011;6994;49.752;6.094;2024-02-15T12:32:47;1.95;;;1.58;;
13847;SDS011;6994;49.752;6.094;2024-02-15T12:35:15;3.03;;;1.45;;
13847;SDS011;6994;49.752;6.094;2024-02-15T12:37:47;2.25;;;1.42;;
13847;SDS011;6994;49.752;6.094;2024-02-15T12:40:30;3.33;;;2.25;;
13847;SDS011;6994;49.752;6.094;2024-02-15T12:42:57;3.22;;;1.50;;
13847;SDS011;6994;49.752;6.094;2024-02-15T12:45:25;5.65;;;2.05;;
13847;SDS011;6994;49.752;6.094;2024-02-15T12:47:51;2.22;;;1.30;;
13847;SDS011;6994;49.752;6.094;2024-02-15T12:50:22;3.72;;;1.60;;
13847;SDS011;6994;49.752;6.094;2024-02-15T12:52:49;3.75;;;1.70;;
13847;SDS011;6994;49.752;6.094;2024-02-15T12:55:19;4.00;;;1.37;;
13847;SDS011;6994;49.752;6.094;2024-02-15T12:57:50;3.12;;;1.33;;
13847;SDS011;6994;49.752;6.094;2024-02-15T13:00:19;3.22;;;1.20;;
13847;SDS011;6994;49.752;6.094;2024-02-15T13:02:50;2.50;;;1.30;;
13847;SDS011;6994;49.752;6.094;2024-02-15T13:05:16;2.67;;;1.12;;
13847;SDS011;6994;49.752;6.094;2024-02-15T13:07:46;4.95;;;1.50;;
13847;SDS011;6994;49.752;6.094;2024-02-15T13:10:13;4.97;;;1.52;;
13847;SDS011;6994;49.752;6.094;2024-02-15T13:12:41;3.40;;;1.30;;
13847;SDS011;6994;49.752;6.094;2024-02-15T13:15:07;1.92;;;1.25;;
13847;SDS011;6994;49.752;6.094;2024-02-15T13:17:35;4.78;;;1.52;;
13847;SDS011;6994;49.752;6.094;2024-02-15T13:20:02;3.90;;;1.10;;
13847;SDS011;6994;49.752;6.094;2024-02-15T13:22:30;1.92;;;1.30;;
13847;SDS011;6994;49.752;6.094;2024-02-15T13:24:56;2.53;;;1.20;;
13847;SDS011;6994;49.752;6.094;2024-02-15T13:27:24;1.73;;;1.12;;
13847;SDS011;6994;49.752;6.094;2024-02-15T13:29:51;2.65;;;1.20;;
13847;SDS011;6994;49.752;6.094;2024-02-15T13:32:18;1.65;;;1.40;;
13847;SDS011;6994;49.752;6.094;2024-02-15T13:34:45;4.87;;;1.50;;
13847;SDS011;6994;49.752;6.094;2024-02-15T13:37:12;1.70;;;0.95;;
13847;SDS011;6994;49.752;6.094;2024-02-15T13:39:40;2.92;;;1.58;;
13847;SDS011;6994;49.752;6.094;2024-02-15T13:42:08;2.03;;;1.17;;
13847;SDS011;6994;49.752;6.094;2024-02-15T13:44:35;3.70;;;1.23;;
13847;SDS011;6994;49.752;6.094;2024-02-15T13:47:03;4.72;;;1.48;;
13847;SDS011;6994;49.752;6.094;2024-02-15T13:49:31;1.48;;;1.02;;
13847;SDS011;6994;49.752;6.094;2024-02-15T13:51:59;2.05;;;1.27;;
13847;SDS011;6994;49.752;6.094;2024-02-15T13:54:26;3.12;;;1.20;;
13847;SDS011;6994;49.752;6.094;2024-02-15T13:56:53;6.15;;;1.50;;
13847;SDS011;6994;49.752;6.094;2024-02-15T13:59:20;3.22;;;1.25;;
13847;SDS011;6994;49.752;6.094;2024-02-15T14:01:47;3.40;;;1.48;;
13847;SDS011;6994;49.752;6.094;2024-02-15T14:04:15;3.62;;;1.50;;
13847;SDS011;6994;49.752;6.094;2024-02-15T14:06:42;3.15;;;1.20;;
13847;SDS011;6994;49.752;6.094;2024-02-15T14:09:12;2.55;;;1.20;;
13847;SDS011;6994;49.752;6.094;2024-02-15T14:11:39;5.47;;;1.10;;
13847;SDS011;6994;49.752;6.094;2024-02-15T14:14:06;2.15;;;1.10;;
13847;SDS011;6994;49.752;6.094;2024-02-15T14:16:34;3.05;;;1.10;;
13847;SDS011;6994;49.752;6.094;2024-02-15T14:19:01;2.70;;;1.00;;
13847;SDS011;6994;49.752;6.094;2024-02-15T14:21:28;2.53;;;1.60;;
13847;SDS011;6994;49.752;6.094;2024-02-15T14:23:55;3.30;;;1.67;;
13847;SDS011;6994;49.752;6.094;2024-02-15T14:26:22;2.75;;;1.10;;
13847;SDS011;6994;49.752;6.094;2024-02-15T14:28:50;4.28;;;1.10;;
13847;SDS011;6994;49.752;6.094;2024-02-15T14:31:18;2.95;;;1.52;;
13847;SDS011;6994;49.752;6.094;2024-02-15T14:33:45;4.25;;;1.30;;
13847;SDS011;6994;49.752;6.094;2024-02-15T14:36:13;3.08;;;1.70;;
13847;SDS011;6994;49.752;6.094;2024-02-15T14:38:41;7.95;;;2.22;;
13847;SDS011;6994;49.752;6.094;2024-02-15T14:41:09;4.82;;;1.50;;
13847;SDS011;6994;49.752;6.094;2024-02-15T14:43:37;3.72;;;1.12;;
13847;SDS011;6994;49.752;6.094;2024-02-15T14:46:04;4.93;;;1.40;;
13847;SDS011;6994;49.752;6.094;2024-02-15T14:48:34;7.72;;;2.22;;
13847;SDS011;6994;49.752;6.094;2024-02-15T14:51:01;3.83;;;1.10;;
13847;SDS011;6994;49.752;6.094;2024-02-15T14:53:28;5.37;;;1.52;;
13847;SDS011;6994;49.752;6.094;2024-02-15T14:55:55;6.37;;;1.85;;
13847;SDS011;6994;49.752;6.094;2024-02-15T14:58:23;4.03;;;1.90;;
13847;SDS011;6994;49.752;6.094;2024-02-15T15:00:50;2.50;;;1.40;;
13847;SDS011;6994;49.752;6.094;2024-02-15T15:03:17;4.53;;;1.58;;
13847;SDS011;6994;49.752;6.094;2024-02-15T15:05:44;4.25;;;1.92;;
13847;SDS011;6994;49.752;6.094;2024-02-15T15:08:30;4.75;;;1.80;;
13847;SDS011;6994;49.752;6.094;2024-02-15T15:11:15;5.68;;;1.95;;
13847;SDS011;6994;49.752;6.094;2024-02-15T15:14:00;4.80;;;1.80;;
13847;SDS011;6994;49.752;6.094;2024-02-15T15:16:27;2.85;;;1.40;;
13847;SDS011;6994;49.752;6.094;2024-02-15T15:18:55;3.33;;;1.50;;